Time;durP1;ratioP1;P1;durP2;ratioP2;P2;SDS_P1;SDS_P2;PMS_P1;PMS_P2;Temp;Humidity;BMP_temperature;BMP_pressure;BME280_temperature;BME280_humidity;BME280_pressure;Samples;Min_cycle;Max_cycle;Signal;HPM_P1;HPM_P2
2021/08/02 00:01:31;;;;;;;17.07;3.77;;;;;;;11.74;100.00;92401.94;5004680;28;20036;-68
2021/08/02 00:04:06;;;;;;;14.50;3.40;;;;;;;11.72;100.00;92063.44;5042879;28;20381;-68
2021/08/02 00:06:57;;;;;;;12.03;3.30;;;;;;;11.72;100.00;91728.94;5043325;28;20059;-68
2021/08/02 00:09:24;;;;;;;13.37;3.60;;;;;;;11.63;100.00;91381.06;5042425;28;20469;-68
2021/08/02 00:12:26;;;;;;;14.97;3.57;;;;;;;11.57;100.00;91371.53;5042560;28;20531;-68
2021/08/02 00:14:58;;;;;;;17.17;3.75;;;;;;;11.55;100.00;91368.34;4942139;28;20073;-68
2021/08/02 00:17:23;;;;;;;15.03;3.40;;;;;;;11.51;100.00;91362.03;4942007;29;20174;-68
2021/08/02 00:19:49;;;;;;;15.80;3.83;;;;;;;11.52;100.00;92032.31;4934040;29;20381;-68
2021/08/02 00:22:15;;;;;;;14.97;4.20;;;;;;;11.52;100.00;92365.94;4942012;29;20039;-68
2021/08/02 00:24:40;;;;;;;15.43;3.47;;;;;;;11.52;100.00;92366.72;4941592;29;20652;-68
2021/08/02 00:27:07;;;;;;;9.60;3.33;;;;;;;11.48;100.00;92360.28;4941375;29;20392;-68
2021/08/02 00:29:33;;;;;;;19.53;3.70;;;;;;;11.60;100.00;93047.72;4945595;28;20555;-68
2021/08/02 00:32:01;;;;;;;11.47;3.30;;;;;;;11.52;100.00;92701.16;4946361;29;20035;-68
2021/08/02 00:34:26;;;;;;;15.63;3.80;;;;;;;11.53;100.00;92368.31;4941612;29;20039;-68
2021/08/02 00:36:58;;;;;;;12.67;3.57;;;;;;;11.64;100.00;92719.66;4941969;29;20050;-68
2021/08/02 00:39:50;;;;;;;15.20;4.10;;;;;;;11.65;100.00;92052.28;4941262;29;20086;-68
2021/08/02 00:43:14;;;;;;;15.63;3.63;;;;;;;11.67;100.00;91387.38;4941745;29;20551;-68
2021/08/02 00:45:41;;;;;;;9.00;3.10;;;;;;;11.63;100.00;90712.34;4866264;29;20237;-68
2021/08/02 00:48:14;;;;;;;14.90;2.80;;;;;;;11.61;100.00;90040.63;4866097;29;20045;-68
2021/08/02 00:50:44;;;;;;;11.90;3.20;;;;;;;11.55;100.00;89697.06;4893301;28;20051;-68
2021/08/02 00:53:19;;;;;;;17.30;2.80;;;;;;;11.56;100.00;89030.31;4967515;28;20049;-68
2021/08/02 00:55:51;;;;;;;10.93;2.67;;;;;;;11.53;100.00;88691.59;4971248;28;20026;-68
2021/08/02 00:58:19;;;;;;;9.83;2.93;;;;;;;11.51;100.00;88020.47;4977240;28;20550;-68
2021/08/02 01:00:47;;;;;;;9.57;2.50;;;;;;;11.48;100.00;87347.97;4969168;28;20925;-68
2021/08/02 01:03:13;;;;;;;11.73;2.20;;;;;;;11.51;100.00;87352.53;4970645;28;20031;-68
2021/08/02 01:05:41;;;;;;;8.17;2.03;;;;;;;11.46;100.00;86677.19;4968091;28;20490;-68
2021/08/02 01:08:31;;;;;;;7.77;2.60;;;;;;;11.46;100.00;86009.59;4966770;28;20121;-68
2021/08/02 01:11:00;;;;;;;14.30;2.77;;;;;;;11.52;100.00;85351.00;4971420;28;20030;-68
2021/08/02 01:13:27;;;;;;;6.50;2.37;;;;;;;11.44;100.00;84338.94;4966118;28;20066;-68
2021/08/02 01:15:54;;;;;;;11.40;3.27;;;;;;;11.40;100.00;83665.25;4964685;28;20043;-68
2021/08/02 01:18:23;;;;;;;7.97;2.83;;;;;;;11.40;100.00;83331.75;4973860;28;20030;-68
2021/08/02 01:20:51;;;;;;;9.00;2.50;;;;;;;11.31;100.00;82985.28;5045220;28;20036;-68
2021/08/02 01:23:19;;;;;;;13.83;2.67;;;;;;;11.35;100.00;83324.47;5039174;28;20025;-68
2021/08/02 01:26:25;;;;;;;5.80;2.20;;;;;;;11.30;100.00;82984.56;5045619;28;20151;-68
2021/08/02 01:29:28;;;;;;;7.27;2.50;;;;;;;11.32;100.00;82986.72;4975571;28;20058;-68
2021/08/02 01:31:53;;;;;;;7.60;2.37;;;;;;;11.28;100.00;83315.06;4983787;28;20045;-68
2021/08/02 01:34:19;;;;;;;11.30;2.47;;;;;;;11.25;100.00;83310.00;4983030;28;20419;-68
2021/08/02 01:36:44;;;;;;;15.67;2.43;;;;;;;11.35;100.00;83324.47;4978650;28;20539;-68
2021/08/02 01:39:10;;;;;;;12.67;3.07;;;;;;;11.32;100.00;83320.16;4983426;28;20044;-68
2021/08/02 01:41:35;;;;;;;9.03;2.40;;;;;;;11.29;100.00;82649.03;4983725;28;20030;-68
2021/08/02 01:44:01;;;;;;;6.73;2.50;;;;;;;11.23;100.00;82641.09;4983099;28;20109;-68
2021/08/02 01:46:38;;;;;;;6.07;2.30;;;;;;;11.23;100.00;80641.75;4983264;28;20740;-68
2021/08/02 01:49:37;;;;;;;7.63;2.73;;;;;;;11.27;100.00;80646.69;4982582;28;20027;-68
2021/08/02 01:52:05;;;;;;;12.13;2.57;;;;;;;11.32;100.00;79987.41;4982036;28;20049;-68
2021/08/02 01:55:02;;;;;;;6.27;2.60;;;;;;;11.31;100.00;78986.81;4983243;28;20827;-68
2021/08/02 01:57:41;;;;;;;10.07;2.67;;;;;;;11.26;100.00;78979.94;4980952;28;20042;-68
2021/08/02 02:00:12;;;;;;;7.53;2.40;;;;;;;11.30;100.00;79651.53;4981243;28;20474;-68
2021/08/02 02:02:39;;;;;;;10.53;2.67;;;;;;;11.37;100.00;79328.81;4981502;28;20125;-68
2021/08/02 02:05:18;;;;;;;10.93;3.00;;;;;;;11.28;100.00;78316.78;5028405;28;20731;-68
2021/08/02 02:08:04;;;;;;;8.63;2.13;;;;;;;11.24;100.00;77312.72;5032393;28;20620;-68
2021/08/02 02:10:38;;;;;;;8.10;2.17;;;;;;;11.25;100.00;76981.94;5045218;28;20064;-70
2021/08/02 02:13:08;;;;;;;5.67;2.33;;;;;;;11.19;100.00;75309.88;5044782;28;20041;-69
2021/08/02 02:15:35;;;;;;;8.63;2.47;;;;;;;11.14;100.00;74972.09;5045180;28;20025;-69
2021/08/02 02:18:02;;;;;;;7.20;2.53;;;;;;;11.17;100.00;73977.22;5044956;28;20382;-69
2021/08/02 02:20:31;;;;;;;10.57;2.60;;;;;;;11.14;100.00;73974.63;5045284;28;20036;-69
2021/08/02 02:22:57;;;;;;;10.27;2.17;;;;;;;11.12;100.00;73972.03;5044621;28;20679;-69
2021/08/02 02:25:23;;;;;;;7.47;2.50;;;;;;;11.05;100.00;73298.28;5044795;28;20037;-69
2021/08/02 02:27:49;;;;;;;6.03;2.07;;;;;;;11.07;100.00;73632.56;5044690;28;20031;-69
2021/08/02 02:30:14;;;;;;;7.87;2.90;;;;;;;11.11;100.00;73637.69;5045062;28;20074;-70
2021/08/02 02:32:42;;;;;;;7.40;2.40;;;;;;;11.04;100.00;72964.72;5044731;28;20066;-70
2021/08/02 02:35:08;;;;;;;7.10;2.00;;;;;;;11.02;100.00;73959.13;5044777;28;20025;-70
2021/08/02 02:37:34;;;;;;;5.43;2.40;;;;;;;11.01;100.00;74622.63;5044388;28;20120;-70
2021/08/02 02:40:00;;;;;;;11.13;2.40;;;;;;;11.09;100.00;73968.16;5036160;28;20104;-70
2021/08/02 02:42:26;;;;;;;10.70;2.80;;;;;;;11.11;100.00;72641.31;5043972;28;20424;-69
2021/08/02 02:44:53;;;;;;;5.97;1.90;;;;;;;11.07;100.00;71639.59;5031631;28;20056;-70
2021/08/02 02:47:19;;;;;;;8.00;2.50;;;;;;;11.10;100.00;70314.84;5044136;28;20025;-70
2021/08/02 02:49:46;;;;;;;6.07;1.93;;;;;;;11.19;100.00;69328.53;5044272;28;20025;-70
2021/08/02 02:52:12;;;;;;;9.93;2.30;;;;;;;11.19;100.00;67668.88;5045095;28;20053;-71
2021/08/02 02:54:38;;;;;;;9.10;2.43;;;;;;;11.18;100.00;68995.94;5044242;28;20062;-71
2021/08/02 02:57:05;;;;;;;8.73;2.03;;;;;;;11.23;100.00;67673.63;5044600;28;20063;-72
2021/08/02 02:59:31;;;;;;;8.27;3.03;;;;;;;11.23;100.00;65020.25;5044177;28;20064;-72
2021/08/02 03:01:59;;;;;;;4.60;1.90;;;;;;;11.27;100.00;64361.63;5044391;28;20075;-72
2021/08/02 03:04:39;;;;;;;7.27;2.30;;;;;;;11.29;100.00;63700.22;5043580;28;20775;-72
2021/08/02 03:07:09;;;;;;;5.50;2.00;;;;;;;11.27;100.00;65356.50;5044326;28;20025;-72
2021/08/02 03:09:36;;;;;;;8.83;2.37;;;;;;;11.25;100.00;65353.63;5043522;28;20032;-72
2021/08/02 03:12:03;;;;;;;6.07;2.00;;;;;;;11.23;100.00;65351.91;5043608;28;20036;-72
2021/08/02 03:14:29;;;;;;;12.53;2.27;;;;;;;11.27;100.00;64361.06;5036810;28;20495;-72
2021/08/02 03:16:55;;;;;;;8.80;2.63;;;;;;;11.28;100.00;64031.19;5040325;28;20029;-72
2021/08/02 03:19:20;;;;;;;11.20;1.90;;;;;;;11.26;100.00;64028.38;5043797;28;20075;-72
2021/08/02 03:21:46;;;;;;;5.07;1.80;;;;;;;11.29;100.00;64695.50;5043953;28;20663;-72
2021/08/02 03:24:18;;;;;;;8.13;1.83;;;;;;;11.33;100.00;64700.03;5043446;28;20033;-72
2021/08/02 03:27:07;;;;;;;9.77;2.25;;;;;;;11.35;100.00;65365.09;5043671;28;20086;-72
2021/08/02 03:29:37;;;;;;;8.23;2.50;;;;;;;11.37;100.00;65699.09;4942382;28;20399;-72
2021/08/02 03:32:12;;;;;;;5.93;2.47;;;;;;;11.39;100.00;66033.78;4942729;29;20047;-72
2021/08/02 03:34:38;;;;;;;6.83;2.10;;;;;;;11.42;100.00;67032.25;4942541;28;20035;-72
2021/08/02 03:37:07;;;;;;;6.07;1.90;;;;;;;11.43;100.00;65706.03;4943172;29;20062;-72
2021/08/02 03:39:35;;;;;;;7.17;2.10;;;;;;;11.46;100.00;64050.88;4942173;28;20080;-72
2021/08/02 03:42:03;;;;;;;8.93;2.23;;;;;;;11.47;100.00;63388.75;4941725;29;20121;-72
2021/08/02 03:44:30;;;;;;;8.27;1.93;;;;;;;11.45;100.00;62060.50;4942341;28;20045;-72
2021/08/02 03:46:56;;;;;;;7.57;2.07;;;;;;;11.49;100.00;59413.66;4942773;29;20070;-72
2021/08/02 03:49:21;;;;;;;6.50;2.20;;;;;;;11.47;100.00;59742.75;4941817;28;20449;-72
2021/08/02 03:51:53;;;;;;;4.70;2.10;;;;;;;11.47;100.00;60737.13;4942428;29;20106;-72
2021/08/02 03:54:18;;;;;;;6.10;1.80;;;;;;;11.49;100.00;63390.97;4942179;28;20126;-72
2021/08/02 03:56:44;;;;;;;6.57;2.10;;;;;;;11.49;100.00;64054.22;4942363;29;20138;-72
2021/08/02 03:59:10;;;;;;;12.53;2.43;;;;;;;11.49;100.00;63390.44;4941853;28;20492;-72
2021/08/02 04:01:43;;;;;;;10.17;2.20;;;;;;;11.47;100.00;62725.66;4941710;29;20691;-72
2021/08/02 04:04:09;;;;;;;4.33;1.70;;;;;;;11.46;100.00;62724.56;4942073;28;20449;-72
2021/08/02 04:06:36;;;;;;;10.13;2.13;;;;;;;11.44;100.00;61396.59;4979044;28;20120;-72
2021/08/02 04:09:04;;;;;;;9.30;2.60;;;;;;;11.47;100.00;62394.16;5022690;28;20028;-72
2021/08/02 04:11:30;;;;;;;7.57;2.07;;;;;;;11.44;100.00;65043.66;5023028;28;20025;-72
2021/08/02 04:13:55;;;;;;;6.03;2.07;;;;;;;11.45;100.00;65708.34;5022554;28;20539;-72
2021/08/02 04:16:24;;;;;;;4.90;1.90;;;;;;;11.44;100.00;65043.66;5022876;28;20029;-72
2021/08/02 04:18:50;;;;;;;8.60;2.03;;;;;;;11.46;100.00;65377.69;5022212;28;20044;-72
2021/08/02 04:21:16;;;;;;;6.10;2.03;;;;;;;11.47;100.00;64052.00;5022715;28;20060;-72
2021/08/02 04:23:41;;;;;;;7.70;1.97;;;;;;;11.48;100.00;63720.91;5022601;28;20025;-72
2021/08/02 04:26:09;;;;;;;5.70;2.20;;;;;;;11.45;100.00;63718.69;5022203;28;20021;-72
2021/08/02 04:28:34;;;;;;;6.77;2.50;;;;;;;11.50;100.00;64718.75;5022469;28;20437;-72
2021/08/02 04:31:00;;;;;;;7.60;2.20;;;;;;;11.49;100.00;66044.78;5022165;28;20026;-72
2021/08/02 04:33:28;;;;;;;7.10;2.13;;;;;;;11.44;100.00;64380.28;5022180;28;20025;-72
2021/08/02 04:35:54;;;;;;;5.00;2.13;;;;;;;11.42;100.00;63383.75;5023058;28;20025;-72
2021/08/02 04:38:19;;;;;;;10.80;2.53;;;;;;;11.45;100.00;63718.13;5021864;28;20253;-72
2021/08/02 04:40:45;;;;;;;9.77;3.10;;;;;;;11.43;100.00;63384.31;5022774;28;20029;-72
2021/08/02 04:43:10;;;;;;;4.83;2.00;;;;;;;11.44;100.00;63053.88;5021886;28;20383;-72
2021/08/02 04:45:36;;;;;;;5.10;2.03;;;;;;;11.44;100.00;62390.88;5022747;28;20035;-72
2021/08/02 04:48:01;;;;;;;12.57;2.17;;;;;;;11.49;100.00;62727.31;5022352;28;20446;-72
2021/08/02 04:50:27;;;;;;;8.70;2.37;;;;;;;11.57;100.00;64062.69;5022446;28;20088;-72
2021/08/02 04:52:52;;;;;;;8.97;2.83;;;;;;;11.64;100.00;64070.56;5022004;28;20033;-72
2021/08/02 04:55:18;;;;;;;8.43;2.13;;;;;;;11.72;100.00;64080.09;5022096;28;20049;-72
2021/08/02 04:57:44;;;;;;;6.37;1.93;;;;;;;11.74;100.00;62091.59;5022418;28;20037;-71
2021/08/02 05:00:11;;;;;;;7.60;2.50;;;;;;;11.81;100.00;62762.06;5022969;28;20018;-72
2021/08/02 05:02:37;;;;;;;9.73;2.20;;;;;;;11.90;100.00;61776.88;5022629;28;20053;-72
2021/08/02 05:05:03;;;;;;;9.17;3.00;;;;;;;11.99;100.00;59796.97;5033736;28;20072;-72
2021/08/02 05:07:28;;;;;;;10.07;2.40;;;;;;;12.19;100.00;61144.78;5042209;28;20416;-72
2021/08/02 05:09:54;;;;;;;6.47;2.10;;;;;;;12.14;100.00;51202.22;5042520;28;20024;-72
2021/08/02 05:12:19;;;;;;;5.63;2.50;;;;;;;12.25;100.00;46914.34;5042316;28;20052;-72
2021/08/02 05:14:45;;;;;;;10.73;2.67;;;;;;;12.17;100.00;42615.81;5042181;28;20033;-72
2021/08/02 05:17:10;;;;;;;11.27;2.83;;;;;;;12.24;100.00;44931.75;5042223;28;20024;-72
2021/08/02 05:19:36;;;;;;;8.40;2.47;;;;;;;12.26;100.00;48237.03;5042126;28;20078;-72
2021/08/02 05:22:02;;;;;;;6.33;2.43;;;;;;;12.33;100.00;50888.63;5041986;28;20307;-72
2021/08/02 05:24:28;;;;;;;9.10;2.57;;;;;;;12.27;100.00;48899.03;5040299;28;20052;-72
2021/08/02 05:26:54;;;;;;;6.20;2.57;;;;;;;12.29;100.00;49562.06;5042230;28;20643;-72
2021/08/02 05:29:19;;;;;;;10.77;2.80;;;;;;;12.47;100.00;51231.28;5042266;28;20603;-72
2021/08/02 05:31:45;;;;;;;8.97;2.47;;;;;;;12.51;100.00;46935.25;5042145;28;20032;-71
2021/08/02 05:34:11;;;;;;;7.70;2.30;;;;;;;12.51;100.00;47266.22;5042055;28;20032;-72
2021/08/02 05:36:38;;;;;;;7.03;1.97;;;;;;;12.54;100.00;44955.06;5042666;28;20024;-72
2021/08/02 05:39:04;;;;;;;7.47;2.83;;;;;;;12.63;100.00;47275.91;5045727;28;20112;-72
2021/08/02 05:41:30;;;;;;;6.33;2.10;;;;;;;12.69;100.00;47280.97;5045623;28;20020;-72
2021/08/02 05:43:55;;;;;;;9.80;2.40;;;;;;;12.77;100.00;42660.97;5045733;28;20021;-72
2021/08/02 05:46:21;;;;;;;9.40;2.27;;;;;;;12.75;100.00;38038.84;5045687;28;20421;-72
2021/08/02 05:48:46;;;;;;;8.63;2.37;;;;;;;12.75;100.00;36061.03;5045612;28;20032;-72
2021/08/02 05:51:12;;;;;;;6.37;2.30;;;;;;;12.74;100.00;29475.06;5045740;28;20029;-72
2021/08/02 05:53:38;;;;;;;5.50;2.07;;;;;;;12.89;100.00;32116.47;5045242;28;20440;-72
2021/08/02 05:56:03;;;;;;;6.07;2.37;;;;;;;13.12;100.00;36414.78;5045206;28;20045;-72
2021/08/02 05:58:29;;;;;;;11.50;2.43;;;;;;;13.06;100.00;28504.78;5045353;28;20049;-72
2021/08/02 06:00:54;;;;;;;5.53;1.90;;;;;;;12.89;100.00;19955.00;5045376;28;20083;-71
2021/08/02 06:03:21;;;;;;;4.37;2.03;;;;;;;12.88;100.00;23894.06;5044876;28;20063;-71
2021/08/02 06:05:47;;;;;;;7.20;1.93;;;;;;;13.01;100.00;22257.25;5045015;28;20518;-71
2021/08/02 06:08:12;;;;;;;9.07;2.37;;;;;;;13.41;100.00;-4234.75;5045245;28;20040;-71
2021/08/02 06:10:38;;;;;;;8.77;2.30;;;;;;;13.68;100.00;-19522.50;5045269;28;20482;-70
2021/08/02 06:13:03;;;;;;;5.20;1.93;;;;;;;14.03;100.00;-19531.66;5044949;28;20029;-71
2021/08/02 06:15:29;;;;;;;5.70;2.10;;;;;;;15.08;100.00;-19558.66;5045166;28;20055;-70
2021/08/02 06:17:54;;;;;;;6.20;2.23;;;;;;;15.46;100.00;-19568.34;5045079;28;20373;-70
2021/08/02 06:20:20;;;;;;;4.03;1.60;;;;;;;16.00;100.00;-19582.34;5044986;28;20031;-70
2021/08/02 06:22:45;;;;;;;4.13;1.90;;;;;;;15.96;100.00;-19581.28;5044943;28;20024;-70
2021/08/02 06:25:11;;;;;;;4.20;1.63;;;;;;;17.25;100.00;-19614.34;5044861;28;20037;-70
2021/08/02 06:27:36;;;;;;;5.53;1.63;;;;;;;17.12;100.00;-19610.94;5044818;28;20044;-70
2021/08/02 06:30:03;;;;;;;5.80;2.03;;;;;;;17.67;100.00;-19625.03;5044934;28;20517;-70
2021/08/02 06:32:29;;;;;;;4.83;1.63;;;;;;;17.12;100.00;-19611.06;5044372;28;20024;-70
2021/08/02 06:34:54;;;;;;;5.43;1.60;;;;;;;15.83;100.00;-19578.00;5044755;28;20024;-70
2021/08/02 06:37:22;;;;;;;5.10;1.73;;;;;;;15.75;100.00;-19575.78;5044761;28;20100;-71
2021/08/02 06:39:47;;;;;;;3.63;1.70;;;;;;;15.36;100.00;-19565.72;5044701;28;20663;-71
2021/08/02 06:42:14;;;;;;;4.67;1.60;;;;;;;15.05;100.00;-19557.88;5044581;28;20147;-71
2021/08/02 06:44:43;;;;;;;7.00;1.53;;;;;;;14.95;100.00;-19555.25;5044363;28;20037;-71
2021/08/02 06:47:09;;;;;;;8.07;2.00;;;;;;;15.45;100.00;-19568.06;5044622;28;20490;-71
2021/08/02 06:49:35;;;;;;;3.97;1.67;;;;;;;15.81;100.00;-19577.38;5043613;28;20029;-71
2021/08/02 06:52:01;;;;;;;3.40;1.70;;;;;;;15.88;100.00;-19579.06;5044639;28;20025;-71
2021/08/02 06:54:26;;;;;;;5.47;1.60;;;;;;;15.80;100.00;-19577.09;5044220;28;20085;-71
2021/08/02 06:56:52;;;;;;;5.07;1.63;;;;;;;16.09;100.00;-19584.69;5044489;28;20108;-71
2021/08/02 06:59:17;;;;;;;7.83;1.90;;;;;;;16.65;100.00;-19598.94;5044075;28;20509;-70
2021/08/02 07:01:43;;;;;;;4.40;1.53;;;;;;;16.90;100.00;-19605.31;5044491;28;20021;-71
2021/08/02 07:04:08;;;;;;;6.60;1.70;;;;;;;16.39;100.00;-19592.41;5043737;28;20068;-71
2021/08/02 07:06:34;;;;;;;4.63;1.57;;;;;;;18.25;100.00;-19639.91;5044535;28;20056;-70
2021/08/02 07:09:00;;;;;;;7.70;1.77;;;;;;;18.04;100.00;-19634.69;5044131;28;20036;-71
2021/08/02 07:11:26;;;;;;;5.28;1.67;;;;;;;17.87;100.00;-19630.25;5044185;28;20013;-70
2021/08/02 07:13:54;;;;;;;3.30;1.23;;;;;;;18.77;100.00;-19653.19;5043939;28;20260;-70
2021/08/02 07:16:23;;;;;;;6.22;1.27;;;;;;;18.73;100.00;-19652.41;5044192;28;20021;-70
2021/08/02 07:18:49;;;;;;;4.15;1.20;;;;;;;19.36;100.00;-19668.31;5040143;28;20021;-70
2021/08/02 07:21:14;;;;;;;4.80;1.40;;;;;;;18.61;100.00;-19649.28;5035943;28;20127;-71
2021/08/02 07:23:40;;;;;;;3.03;1.13;;;;;;;18.60;100.00;-19649.03;5043714;28;20067;-71
2021/08/02 07:26:06;;;;;;;4.57;1.20;;;;;;;18.20;100.00;-19638.59;5043993;28;20021;-71
2021/08/02 07:28:32;;;;;;;4.20;1.00;;;;;;;18.45;100.00;-19645.13;5043601;28;20044;-71
2021/08/02 07:30:57;;;;;;;3.80;1.13;;;;;;;17.69;100.00;-19625.56;5043701;28;20398;-71
2021/08/02 07:33:22;;;;;;;4.22;1.23;;;;;;;17.80;100.00;-19628.44;5043473;28;20386;-71
2021/08/02 07:35:48;;;;;;;4.35;1.08;;;;;;;18.29;100.00;-19640.94;5043759;28;20025;-70
2021/08/02 07:38:13;;;;;;;3.88;1.10;;;;;;;18.53;100.00;-19647.06;5043650;28;20099;-71
2021/08/02 07:40:39;;;;;;;3.33;1.10;;;;;;;17.62;100.00;-19623.72;5043833;28;20029;-71
2021/08/02 07:43:05;;;;;;;4.93;1.15;;;;;;;17.71;100.00;-19626.09;5043113;28;20056;-70
2021/08/02 07:45:31;;;;;;;3.85;1.13;;;;;;;18.70;100.00;-19651.63;5043697;28;20063;-70
2021/08/02 07:47:57;;;;;;;7.35;1.35;;;;;;;19.63;100.00;-19675.22;5043138;28;20650;-70
2021/08/02 07:50:22;;;;;;;2.13;0.90;;;;;;;20.30;100.00;-19692.50;5043379;28;20405;-70
2021/08/02 07:52:48;;;;;;;3.67;1.30;;;;;;;20.09;100.00;-19687.03;5043282;28;20020;-71
2021/08/02 07:55:14;;;;;;;4.57;1.27;;;;;;;20.67;100.00;-19701.88;5043451;28;20384;-70
2021/08/02 07:57:40;;;;;;;3.33;1.00;;;;;;;19.54;100.00;-19673.00;5043026;28;20057;-71
2021/08/02 08:00:07;;;;;;;4.43;1.00;;;;;;;19.80;100.00;-19679.63;5042581;28;20024;-71
2021/08/02 08:02:33;;;;;;;6.63;0.95;;;;;;;21.18;100.00;-19714.97;5042639;28;20101;-71
2021/08/02 08:04:58;;;;;;;3.90;1.00;;;;;;;21.54;98.19;-19724.19;5042583;28;20119;-71
2021/08/02 08:07:24;;;;;;;4.93;1.48;;;;;;;20.69;98.56;-19702.38;5042939;28;20032;-71
2021/08/02 08:09:49;;;;;;;7.95;1.10;;;;;;;21.57;96.42;-19724.97;5043029;28;20628;-71
2021/08/02 08:12:15;;;;;;;3.58;0.77;;;;;;;21.86;97.34;-19732.38;5042957;28;20029;-71
2021/08/02 08:14:40;;;;;;;4.80;1.25;;;;;;;20.14;99.46;-19688.34;5042699;28;20469;-71
2021/08/02 08:17:09;;;;;;;4.47;1.23;;;;;;;20.31;100.00;-19692.63;5042986;28;20028;-71
2021/08/02 08:19:34;;;;;;;2.92;0.70;;;;;;;19.68;100.00;-19676.63;5042788;28;20078;-71
2021/08/02 08:22:00;;;;;;;7.53;1.33;;;;;;;19.64;100.00;-19675.47;5042763;28;20393;-71
2021/08/02 08:24:26;;;;;;;8.32;1.40;;;;;;;19.80;100.00;-19679.75;5042563;28;20037;-71
2021/08/02 08:26:51;;;;;;;3.35;0.90;;;;;;;20.81;99.77;-19705.38;5042628;28;20572;-71
2021/08/02 08:29:17;;;;;;;4.95;0.90;;;;;;;21.00;100.00;-19710.44;5042703;28;20036;-71
2021/08/02 08:31:43;;;;;;;1.98;1.00;;;;;;;20.69;100.00;-19702.38;5042712;28;20024;-71
2021/08/02 08:34:11;;;;;;;1.83;0.73;;;;;;;20.96;99.86;-19709.41;5042350;28;20025;-71
2021/08/02 08:36:37;;;;;;;7.18;1.00;;;;;;;21.31;100.00;-19718.22;5042706;28;20055;-71
2021/08/02 08:39:04;;;;;;;3.08;1.35;;;;;;;21.41;100.00;-19720.81;5042205;28;20033;-71
2021/08/02 08:41:30;;;;;;;2.60;1.17;;;;;;;20.69;96.88;-19702.38;5042670;28;20032;-71
2021/08/02 08:43:55;;;;;;;4.35;1.10;;;;;;;20.46;95.85;-19696.66;5042215;28;20025;-71
2021/08/02 08:46:23;;;;;;;2.80;0.88;;;;;;;20.52;100.00;-19697.97;5042503;28;20047;-71
2021/08/02 08:48:49;;;;;;;4.18;0.65;;;;;;;21.46;92.95;-19722.13;5042147;28;20021;-71
2021/08/02 08:51:15;;;;;;;2.78;0.70;;;;;;;21.53;84.52;-19723.94;5042450;28;20081;-71
2021/08/02 08:53:42;;;;;;;3.95;0.98;;;;;;;20.86;82.77;-19706.81;5042228;28;20100;-71
2021/08/02 08:56:08;;;;;;;3.08;0.88;;;;;;;20.54;92.22;-19698.50;5042432;28;20075;-71
2021/08/02 08:58:34;;;;;;;7.18;0.85;;;;;;;20.25;83.38;-19691.06;5042221;28;20055;-71
2021/08/02 09:01:01;;;;;;;3.92;0.70;;;;;;;20.58;83.13;-19699.53;5042250;28;20382;-71
2021/08/02 09:03:28;;;;;;;3.03;0.93;;;;;;;21.02;81.60;-19710.97;5041794;28;20162;-71
2021/08/02 09:06:04;;;;;;;2.63;0.88;;;;;;;20.93;81.53;-19708.63;5041984;28;20122;-71
2021/08/02 09:08:30;;;;;;;4.07;0.60;;;;;;;21.58;76.46;-19725.13;5042046;28;20083;-71
2021/08/02 09:11:00;;;;;;;2.42;0.73;;;;;;;21.43;82.44;-19721.34;5042481;28;20017;-71
2021/08/02 09:13:33;;;;;;;4.78;0.60;;;;;;;21.22;82.06;-19715.91;5045768;28;20029;-71
2021/08/02 09:16:10;;;;;;;1.77;0.70;;;;;;;20.53;81.65;-19698.22;5046422;28;20025;-71
2021/08/02 09:18:36;;;;;;;1.85;0.57;;;;;;;19.66;86.24;-19676.00;5046072;28;20060;-71
2021/08/02 09:21:07;;;;;;;2.90;0.75;;;;;;;20.53;80.41;-19698.22;5046297;28;20079;-71
2021/08/02 09:23:33;;;;;;;1.38;0.60;;;;;;;21.72;71.61;-19728.63;5043850;28;20025;-71
2021/08/02 09:26:01;;;;;;;2.70;0.60;;;;;;;22.70;69.76;-19753.78;5037211;28;20095;-72
2021/08/02 09:28:27;;;;;;;2.55;0.80;;;;;;;21.64;68.78;-19726.78;5045818;28;20056;-71
2021/08/02 09:30:58;;;;;;;3.63;0.82;;;;;;;21.37;71.14;-19719.78;5046027;28;20029;-70
2021/08/02 09:33:25;;;;;;;2.78;0.85;;;;;;;20.71;78.61;-19702.91;5045674;28;20032;-70
2021/08/02 09:35:51;;;;;;;2.10;0.70;;;;;;;21.90;72.06;-19733.41;5045874;28;20108;-71
2021/08/02 09:38:20;;;;;;;1.85;0.68;;;;;;;22.21;69.16;-19741.19;5045581;28;20021;-71
2021/08/02 09:40:53;;;;;;;4.07;0.60;;;;;;;22.33;67.66;-19744.19;5045787;28;20044;-70
2021/08/02 09:43:21;;;;;;;2.90;0.60;;;;;;;21.46;69.11;-19722.13;5033261;28;20025;-70
2021/08/02 09:45:55;;;;;;;1.83;0.50;;;;;;;22.42;68.71;-19746.53;5045590;28;20033;-71
2021/08/02 09:48:32;;;;;;;2.88;0.73;;;;;;;23.02;66.30;-19761.94;5045208;28;20035;-70
2021/08/02 09:51:24;;;;;;;2.20;0.60;;;;;;;20.77;69.45;-19704.47;5045259;28;20033;-70
2021/08/02 09:53:53;;;;;;;;;;;;;;;22.05;73.20;-19737.19;5045040;28;20406;-70
2021/08/02 09:56:22;;;;;;;1.90;0.65;;;;;;;21.49;71.13;-19722.91;5031889;28;19915;-70
2021/08/02 09:58:48;;;;;;;2.67;0.68;;;;;;;21.62;67.67;-19726.16;5045009;28;20089;-70
2021/08/02 10:01:18;;;;;;;4.72;0.73;;;;;;;20.68;70.93;-19702.25;5045231;28;20136;-71
2021/08/02 10:03:43;;;;;;;1.83;0.60;;;;;;;19.35;82.60;-19668.03;5044722;28;20036;-71
2021/08/02 10:06:11;;;;;;;3.30;0.90;;;;;;;19.28;89.88;-19666.47;5045344;28;20025;-70
2021/08/02 10:08:37;;;;;;;3.10;0.85;;;;;;;20.08;78.29;-19686.78;5044937;28;20506;-70
2021/08/02 10:11:04;;;;;;;3.60;0.80;;;;;;;21.24;72.57;-19716.53;5045025;28;20098;-70
2021/08/02 10:13:33;;;;;;;5.53;0.80;;;;;;;22.36;70.38;-19745.09;5044898;28;20017;-70
2021/08/02 10:16:01;;;;;;;1.85;0.50;;;;;;;22.30;65.97;-19743.53;5045202;28;20371;-70
2021/08/02 10:18:29;;;;;;;1.52;0.57;;;;;;;22.41;66.81;-19746.25;5044786;28;20025;-70
2021/08/02 10:21:06;;;;;;;2.60;0.73;;;;;;;21.39;69.76;-19720.19;5043999;28;20029;-70
2021/08/02 10:23:32;;;;;;;1.42;0.63;;;;;;;20.63;77.97;-19700.81;5043059;28;20108;-70
2021/08/02 10:25:58;;;;;;;2.50;0.52;;;;;;;20.73;76.95;-19703.44;5044854;28;20045;-71
2021/08/02 10:28:24;;;;;;;2.83;0.52;;;;;;;20.94;72.77;-19708.88;5044780;28;20067;-71
2021/08/02 10:31:04;;;;;;;1.02;0.50;;;;;;;19.91;77.06;-19682.50;5044827;28;20174;-70
2021/08/02 10:33:38;;;;;;;1.33;0.60;;;;;;;19.92;78.98;-19682.75;5044565;28;20469;-71
2021/08/02 10:36:18;;;;;;;2.47;0.68;;;;;;;19.39;88.47;-19669.09;5045080;28;20067;-71
2021/08/02 10:38:50;;;;;;;3.85;0.60;;;;;;;18.85;93.82;-19655.41;5036178;28;20666;-71
2021/08/02 10:41:42;;;;;;;2.78;0.68;;;;;;;18.50;100.00;-19646.41;5044803;28;20112;-71
2021/08/02 10:44:16;;;;;;;4.93;0.68;;;;;;;17.98;100.00;-19633.13;5039341;28;20041;-71
2021/08/02 10:46:41;;;;;;;3.72;0.90;;;;;;;16.92;100.00;-19605.84;5044616;28;20041;-70
2021/08/02 10:49:12;;;;;;;4.00;0.83;;;;;;;15.94;100.00;-19580.63;5043993;28;20032;-70
2021/08/02 10:51:52;;;;;;;3.43;0.80;;;;;;;15.45;100.00;-19568.06;5044443;28;20028;-70
2021/08/02 10:54:18;;;;;;;2.50;0.70;;;;;;;15.24;100.00;-19562.84;5044240;28;20677;-71
2021/08/02 10:56:48;;;;;;;1.67;0.70;;;;;;;15.14;100.00;-19560.09;5044549;28;20083;-71
2021/08/02 10:59:17;;;;;;;2.00;0.70;;;;;;;15.14;100.00;-19560.22;5044663;28;20728;-71
2021/08/02 11:01:52;;;;;;;3.60;0.90;;;;;;;15.36;100.00;-19565.84;5044146;28;20033;-71
2021/08/02 11:04:21;;;;;;;4.77;0.90;;;;;;;15.56;100.00;-19570.94;5043532;28;20533;-71
2021/08/02 11:06:48;;;;;;;5.83;1.00;;;;;;;15.71;100.00;-19574.88;5044236;28;20028;-71
2021/08/02 11:09:14;;;;;;;2.00;1.00;;;;;;;15.84;100.00;-19578.16;5043883;28;20029;-71
2021/08/02 11:11:39;;;;;;;4.00;1.03;;;;;;;16.26;100.00;-19589.00;5044209;28;20027;-71
2021/08/02 11:14:13;;;;;;;2.83;0.93;;;;;;;16.78;100.00;-19602.19;5043689;28;20165;-71
2021/08/02 11:16:44;;;;;;;6.93;1.10;;;;;;;17.26;100.00;-19614.72;5042491;28;20113;-71
2021/08/02 11:19:36;;;;;;;2.57;1.00;;;;;;;17.37;100.00;-19617.47;5043685;28;20083;-71
2021/08/02 11:22:04;;;;;;;6.20;0.95;;;;;;;18.00;100.00;-19633.66;5038982;28;20574;-70
2021/08/02 11:24:32;;;;;;;2.47;0.63;;;;;;;18.19;100.00;-19638.34;5043446;28;20072;-70
2021/08/02 11:27:00;;;;;;;3.50;0.97;;;;;;;18.38;100.00;-19643.28;5043675;28;20028;-71
2021/08/02 11:29:27;;;;;;;3.50;1.35;;;;;;;18.85;100.00;-19655.28;5043364;28;20028;-70